UACCLTFE

Guest
Details From UACC - Astana Intl
To LTFE - Milas Bodrum
Flight Number -
Tags Generated
Created
Modified
Stats Distance 2,024 nm / 3,749 km
Max Altitude 0 ft / 0 m
Waypoints 7
Social Downloads 0
Likes 0
Share VATSIM

Download

Looking for another format? Having issues loading an existing format? Contact us
Advertisement - Login to hide

Notes

Generated

Route

UACC KUSOT MANAD LINOK BAFRA R2281 LTFE

ID Type Via Altitude Latitude Longitude Leg Dist Tot Dist Heading (true) Name
O UACC APT - 0 ft / 0 m 51.01097˚ 71.44957˚ - 0 nm - -
KUSOT FIX - 0 ft / 0 m 50.35778˚ 65.85278˚ 216 nm 216 nm 262° / 257° -
MANAD FIX - 0 ft / 0 m 49.34694˚ 60.41444˚ 219 nm 435 nm 256° / 252° -
LINOK FIX - 0 ft / 0 m 43.39333˚ 40.00000˚ 914 nm 1350 nm 255° / 240° -
BAFRA FIX - 0 ft / 0 m 41.50861˚ 35.96639˚ 211 nm 1561 nm 239° / 236° -
R2281 FIX - 0 ft / 0 m 37.25497˚ 27.64921˚ 462 nm 2024 nm 239° / 234° -
O LTFE APT - 0 ft / 0 m 37.25497˚ 27.64921˚ 0 nm 2024 nm 0° / 180° -

Altitude Profile

Advertisement - Login to hide

Weather


0- 5 10 15 20 25 30 35+ Temperature / ° C

Clouds and Precipitation
Forecast for 2018-05-23 12:00 UTC. Updated 4 hours ago

Ground ~20,000 ft ~40,000 ft Winds

UACC

Details ICAO UACC (TSE)
Name Astana INTL
Region Kazakhstan and Kyrgyzstan
Timezone Asia/Almaty (UTC+6.0)
Stats Elevation 1,165 ft / 355 m (AMSL)
Location 51.022180° 71.467062°
Runways 1
Magnetic Variation 9.865° E

METAR

UACC 231430Z 01006MPS CAVOK 11/M03 Q1022 R04/0///70 NOSIG RMK QFE735/0980

Decode

TAF

TAF UACC 231100Z 2312/2412 33009G14MPS 9999 NSC TX17/2409Z TN02/2323Z BECMG 2314/2316 30006MPS BECMG 2400/2402 24008MPS BECMG 2406/2408 24011G16MPS SCT030 BKN100 TEMPO 2409/2412 -SHRA BKN030CB

Decode

Departure Runways

ID Width Length Bearing (true) Bearing (mag) Surface Threshold Offset Overrun Length
04 148 ft / 45 m 11,467 ft / 3,495 m 44.45° 34.59° Asphalt 0 ft / 0 m 0 ft / 0 m
22 148 ft / 45 m 11,467 ft / 3,495 m 224.48° 214.62° Asphalt 0 ft / 0 m 0 ft / 0 m

LTFE

Details ICAO LTFE (BJV)
Name MILAS BODRUM
Region Turkey
Timezone Europe/Istanbul (UTC+3.0)
Stats Elevation 21 ft / 6 m (AMSL)
Location 37.251115° 27.665350°
Runways 1
Magnetic Variation 4.873° E

METAR

LTFE 231420Z 21012KT 9999 FEW035 28/13 Q1014 NOSIG

Decode

TAF

Not found

Destination Runways

ID Width Length Bearing (true) Bearing (mag) Surface Threshold Offset Overrun Length
11 148 ft / 45 m 9,786 ft / 2,983 m 106.68° 101.81° Concrete 0 ft / 0 m 208 ft / 63 m
29 148 ft / 45 m 9,786 ft / 2,983 m 286.70° 281.83° Concrete 0 ft / 0 m 201 ft / 61 m

Approach Navaids

Runway Type Ident Frequency Range Bearing (true) Bearing (mag) Slope Elevation
11 Localiser IBDR 109.30 MHz 18 nm / 33 km 106.64° 101.77° - 21 ft / 6 m (AMSL)
11 Glidescope IBDR 109.30 MHz 10 nm / 19 km 106.69° 101.82° 3.30° 21 ft / 6 m (AMSL)
29 Localiser IGML 109.10 MHz 18 nm / 33 km 286.68° 281.81° - 21 ft / 6 m (AMSL)
29 Glidescope IGML 109.10 MHz 10 nm / 19 km 286.69° 281.82° 3.90° 21 ft / 6 m (AMSL)